Time;durP1;ratioP1;P1;durP2;ratioP2;P2;SDS_P1;SDS_P2;PMS_P1;PMS_P2;Temp;Humidity;BMP_temperature;BMP_pressure;BME280_temperature;BME280_humidity;BME280_pressure;Samples;Min_cycle;Max_cycle;Signal;HPM_P1;HPM_P2
2023/07/03 00:00:45;;;;;;;13.05;3.72;;;16.00;99.90;;;;;;5016940;28;20041;-76
2023/07/03 00:03:14;;;;;;;11.75;3.45;;;16.00;99.90;;;;;;5022717;28;20511;-76
2023/07/03 00:05:43;;;;;;;10.57;3.85;;;16.00;99.90;;;;;;5019896;28;20052;-76
2023/07/03 00:08:10;;;;;;;13.27;4.03;;;16.00;99.90;;;;;;5034942;28;20062;-76
2023/07/03 00:10:36;;;;;;;14.00;3.88;;;16.00;99.90;;;;;;5027908;28;20047;-76
2023/07/03 00:13:01;;;;;;;12.13;3.60;;;16.00;99.90;;;;;;5006296;28;20041;-75
2023/07/03 00:15:27;;;;;;;15.60;4.15;;;15.90;99.90;;;;;;5018878;28;20048;-77
2023/07/03 00:17:52;;;;;;;14.57;3.42;;;15.90;99.90;;;;;;5037823;28;20136;-77
2023/07/03 00:20:18;;;;;;;13.20;3.85;;;15.90;99.90;;;;;;5043227;28;20873;-76
2023/07/03 00:22:46;;;;;;;15.32;3.72;;;15.90;99.90;;;;;;5036861;28;20591;-76
2023/07/03 00:25:12;;;;;;;11.05;2.90;;;15.90;99.90;;;;;;5028469;28;20036;-76
2023/07/03 00:27:38;;;;;;;10.43;2.58;;;15.90;99.90;;;;;;5041211;28;20433;-76
2023/07/03 00:30:05;;;;;;;11.25;3.95;;;16.00;99.90;;;;;;5021716;28;20063;-76
2023/07/03 00:32:31;;;;;;;11.15;3.03;;;16.00;99.90;;;;;;5037629;28;20112;-76
2023/07/03 00:34:58;;;;;;;10.18;2.92;;;16.00;99.90;;;;;;5042287;28;20372;-77
2023/07/03 00:37:24;;;;;;;14.52;3.42;;;16.10;99.90;;;;;;5021787;28;20044;-76
2023/07/03 00:39:50;;;;;;;8.90;2.70;;;16.10;99.90;;;;;;5037305;28;20037;-76
2023/07/03 00:42:15;;;;;;;12.95;3.03;;;16.20;99.90;;;;;;5018747;28;20507;-75
2023/07/03 00:44:41;;;;;;;11.43;2.92;;;16.20;99.90;;;;;;5041955;28;20064;-76
2023/07/03 00:47:10;;;;;;;10.45;2.47;;;16.20;99.90;;;;;;5018255;28;20559;-76
2023/07/03 00:49:36;;;;;;;9.40;2.45;;;16.30;99.90;;;;;;5020225;28;20427;-76
2023/07/03 00:52:02;;;;;;;13.55;3.05;;;16.20;99.90;;;;;;5038141;28;20040;-76
2023/07/03 00:54:29;;;;;;;13.75;2.90;;;16.30;99.90;;;;;;5025055;28;20086;-76
2023/07/03 00:56:55;;;;;;;11.20;2.50;;;16.30;99.90;;;;;;5019499;28;20047;-76
2023/07/03 00:59:21;;;;;;;10.23;2.95;;;16.30;99.90;;;;;;5019716;28;20057;-76
2023/07/03 01:01:53;;;;;;;11.30;2.60;;;16.30;99.90;;;;;;5010679;28;20098;-77
2023/07/03 01:04:49;;;;;;;13.27;3.13;;;16.20;99.90;;;;;;5039347;28;20095;-75
2023/07/03 01:07:19;;;;;;;11.15;2.72;;;16.20;99.90;;;;;;5040405;28;20095;-75
2023/07/03 01:09:56;;;;;;;9.57;2.92;;;16.20;99.90;;;;;;5025818;28;20484;-76
2023/07/03 01:12:25;;;;;;;10.00;2.67;;;16.10;99.90;;;;;;5011179;28;20045;-75
2023/07/03 01:14:53;;;;;;;14.10;2.88;;;16.10;99.90;;;;;;5034606;28;20052;-75
2023/07/03 01:17:19;;;;;;;8.82;2.70;;;16.00;99.90;;;;;;4986784;28;20120;-76
2023/07/03 01:19:47;;;;;;;11.45;2.80;;;16.00;99.90;;;;;;4998510;28;20061;-76
2023/07/03 01:22:36;;;;;;;15.07;2.85;;;15.90;99.90;;;;;;4998486;28;20099;-76
2023/07/03 01:25:08;;;;;;;15.95;2.95;;;15.90;99.90;;;;;;5020909;28;20040;-75
2023/07/03 01:27:38;;;;;;;10.32;2.58;;;15.90;99.90;;;;;;5042414;28;20037;-76
2023/07/03 01:30:12;;;;;;;9.07;2.63;;;15.90;99.90;;;;;;5038633;28;20053;-75
2023/07/03 01:32:39;;;;;;;14.43;2.78;;;15.80;99.90;;;;;;5025146;28;20056;-76
2023/07/03 01:35:08;;;;;;;8.57;2.30;;;15.80;99.90;;;;;;5016477;28;20036;-76
2023/07/03 01:37:37;;;;;;;10.27;2.42;;;15.80;99.90;;;;;;5003821;28;20094;-77
2023/07/03 01:40:03;;;;;;;11.25;2.55;;;15.70;99.90;;;;;;5039938;28;20041;-75
2023/07/03 01:42:31;;;;;;;11.50;2.40;;;15.60;99.90;;;;;;5041377;28;20052;-77
2023/07/03 01:44:56;;;;;;;8.80;2.53;;;15.60;99.90;;;;;;5019496;28;20429;-77
2023/07/03 01:47:22;;;;;;;11.85;2.50;;;15.50;99.90;;;;;;5011742;28;20037;-74
2023/07/03 01:49:49;;;;;;;15.55;2.85;;;15.40;99.90;;;;;;5018574;28;20821;-76
2023/07/03 01:52:27;;;;;;;11.13;2.90;;;15.40;99.90;;;;;;5018965;28;20052;-76
2023/07/03 01:55:04;;;;;;;12.57;2.88;;;15.30;99.90;;;;;;5019638;28;20076;-76
2023/07/03 01:57:42;;;;;;;11.45;2.83;;;15.30;99.90;;;;;;5017686;28;20096;-76
2023/07/03 02:00:13;;;;;;;7.70;2.17;;;15.20;99.90;;;;;;5013943;28;20623;-75
2023/07/03 02:02:43;;;;;;;11.63;2.53;;;15.20;99.90;;;;;;5043423;28;20086;-75
2023/07/03 02:05:14;;;;;;;13.73;3.10;;;15.20;99.90;;;;;;5019882;28;20045;-75
2023/07/03 02:07:41;;;;;;;11.38;2.75;;;15.10;99.90;;;;;;5031153;28;20496;-76
2023/07/03 02:10:07;;;;;;;9.82;2.90;;;15.00;99.90;;;;;;5006882;28;20133;-75
2023/07/03 02:12:33;;;;;;;13.07;2.88;;;15.00;99.90;;;;;;5010633;28;20122;-75
2023/07/03 02:15:03;;;;;;;9.52;2.50;;;15.00;99.90;;;;;;5001992;28;20124;-75
2023/07/03 02:17:29;;;;;;;12.43;2.38;;;14.90;99.90;;;;;;5039538;28;20033;-75
2023/07/03 02:19:55;;;;;;;16.75;2.90;;;14.90;99.90;;;;;;5042525;28;20045;-76
2023/07/03 02:22:21;;;;;;;11.27;2.72;;;14.90;99.90;;;;;;5023897;28;20056;-76
2023/07/03 02:24:47;;;;;;;10.90;2.50;;;14.90;99.90;;;;;;5040032;28;20064;-76
2023/07/03 02:27:12;;;;;;;13.18;3.80;;;14.80;99.90;;;;;;5028846;28;20051;-75
2023/07/03 02:29:38;;;;;;;13.07;2.45;;;14.80;99.90;;;;;;5027355;28;20049;-76
2023/07/03 02:32:09;;;;;;;13.35;2.88;;;14.70;99.90;;;;;;5042200;28;20041;-76
2023/07/03 02:34:35;;;;;;;13.55;2.92;;;14.70;99.90;;;;;;5008820;28;20132;-76
2023/07/03 02:37:01;;;;;;;18.13;3.20;;;14.60;99.90;;;;;;5009771;28;20399;-75
2023/07/03 02:39:26;;;;;;;11.32;2.17;;;14.60;99.90;;;;;;5040511;28;20122;-75
2023/07/03 02:41:52;;;;;;;13.40;2.78;;;14.50;99.90;;;;;;5037274;28;20814;-75
2023/07/03 02:44:18;;;;;;;14.07;3.03;;;14.40;99.90;;;;;;5042906;28;20064;-75
2023/07/03 02:46:43;;;;;;;11.63;2.67;;;14.40;99.90;;;;;;5018138;28;20047;-75
2023/07/03 02:49:09;;;;;;;13.35;2.53;;;14.30;99.90;;;;;;5003779;28;20061;-75
2023/07/03 02:51:35;;;;;;;12.50;2.97;;;14.30;99.90;;;;;;5037544;28;20679;-75
2023/07/03 02:54:03;;;;;;;11.48;2.90;;;14.20;99.90;;;;;;5009412;28;20045;-76
2023/07/03 02:56:29;;;;;;;13.05;3.17;;;14.20;99.90;;;;;;5018153;28;20111;-76
2023/07/03 02:58:55;;;;;;;13.07;3.53;;;14.10;99.90;;;;;;5023684;28;20033;-75
2023/07/03 03:01:21;;;;;;;9.18;2.90;;;14.10;99.90;;;;;;5040380;28;20447;-75
2023/07/03 03:03:47;;;;;;;9.63;2.75;;;14.10;99.90;;;;;;5040888;28;20052;-75
2023/07/03 03:06:13;;;;;;;15.95;3.15;;;14.10;99.90;;;;;;5039497;28;20049;-75
2023/07/03 03:08:38;;;;;;;13.15;2.92;;;14.00;99.90;;;;;;5026117;28;20044;-75
2023/07/03 03:11:04;;;;;;;12.80;3.08;;;14.00;99.90;;;;;;5003004;28;20120;-75
2023/07/03 03:13:30;;;;;;;12.40;2.72;;;14.00;99.90;;;;;;5042206;28;20056;-76
2023/07/03 03:15:56;;;;;;;14.82;2.67;;;14.00;99.90;;;;;;5037762;28;20044;-75
2023/07/03 03:18:21;;;;;;;17.45;3.47;;;14.00;99.90;;;;;;5036223;28;20511;-76
2023/07/03 03:20:47;;;;;;;13.02;3.38;;;13.90;99.90;;;;;;5007210;28;20041;-75
2023/07/03 03:23:13;;;;;;;11.85;2.30;;;13.90;99.90;;;;;;5029593;28;20045;-75
2023/07/03 03:25:39;;;;;;;10.13;2.80;;;13.90;99.90;;;;;;5013525;28;20056;-76
2023/07/03 03:28:05;;;;;;;13.30;3.03;;;14.00;99.90;;;;;;5021468;28;20084;-75
2023/07/03 03:30:31;;;;;;;14.68;3.45;;;13.90;99.90;;;;;;5023694;28;20041;-75
2023/07/03 03:32:58;;;;;;;19.40;3.78;;;14.00;99.90;;;;;;5004019;28;20079;-76
2023/07/03 03:35:24;;;;;;;11.05;2.60;;;13.90;99.90;;;;;;5026576;28;20115;-75
2023/07/03 03:37:49;;;;;;;16.67;3.28;;;14.00;99.90;;;;;;5022859;28;20071;-76
2023/07/03 03:40:15;;;;;;;13.95;2.85;;;13.90;99.90;;;;;;5016725;28;20121;-75
2023/07/03 03:42:41;;;;;;;14.27;2.95;;;14.00;99.90;;;;;;5038039;28;20048;-75
2023/07/03 03:45:07;;;;;;;10.45;3.10;;;14.00;99.90;;;;;;5017133;28;20048;-75
2023/07/03 03:47:33;;;;;;;15.77;3.22;;;14.00;99.90;;;;;;5037818;28;20051;-75
2023/07/03 03:49:59;;;;;;;13.10;2.97;;;14.00;99.90;;;;;;5042532;28;20056;-75
2023/07/03 03:52:24;;;;;;;15.15;2.83;;;14.10;99.90;;;;;;5004980;28;20500;-75
2023/07/03 03:54:50;;;;;;;16.55;2.90;;;14.20;99.90;;;;;;5033548;28;20039;-75
2023/07/03 03:57:16;;;;;;;18.98;3.28;;;14.20;99.90;;;;;;5037563;28;20508;-75
2023/07/03 03:59:41;;;;;;;9.73;2.80;;;14.20;99.90;;;;;;5024052;28;20041;-75
2023/07/03 04:02:08;;;;;;;14.88;3.05;;;14.20;99.90;;;;;;4998628;28;20057;-74
2023/07/03 04:04:34;;;;;;;11.13;3.20;;;14.30;99.90;;;;;;5024476;28;20175;-74
2023/07/03 04:07:00;;;;;;;13.35;3.08;;;14.30;99.90;;;;;;5001925;28;20329;-75
2023/07/03 04:09:26;;;;;;;11.57;2.80;;;14.30;99.90;;;;;;5020124;28;20121;-75
2023/07/03 04:11:52;;;;;;;12.13;3.28;;;14.40;99.90;;;;;;5029024;28;20048;-76
2023/07/03 04:14:18;;;;;;;16.40;3.33;;;14.60;99.90;;;;;;5034083;28;20041;-75
2023/07/03 04:16:44;;;;;;;10.90;2.72;;;14.70;99.90;;;;;;5023825;28;20136;-75
2023/07/03 04:19:10;;;;;;;8.18;2.50;;;14.80;99.90;;;;;;4999143;28;20041;-76
2023/07/03 04:21:36;;;;;;;16.38;3.40;;;14.80;99.90;;;;;;5021400;28;20040;-76
2023/07/03 04:24:02;;;;;;;12.50;2.70;;;14.90;99.90;;;;;;5005623;28;20061;-75
2023/07/03 04:26:27;;;;;;;12.80;3.15;;;14.90;99.90;;;;;;5020536;28;20061;-75
2023/07/03 04:28:53;;;;;;;14.65;2.90;;;15.00;99.90;;;;;;5018549;28;20148;-76
2023/07/03 04:31:19;;;;;;;19.17;3.80;;;15.20;99.90;;;;;;5039223;28;20053;-75
2023/07/03 04:33:45;;;;;;;13.02;2.90;;;15.20;99.90;;;;;;5018672;28;20044;-75
2023/07/03 04:36:12;;;;;;;13.80;3.38;;;15.20;99.90;;;;;;5016167;28;20504;-75
2023/07/03 04:38:39;;;;;;;15.32;3.47;;;15.20;99.90;;;;;;5019044;28;20536;-75
2023/07/03 04:41:05;;;;;;;14.75;3.38;;;15.20;99.90;;;;;;5017060;28;20045;-75
2023/07/03 04:43:31;;;;;;;18.25;4.25;;;15.30;99.90;;;;;;5013968;28;20044;-75
2023/07/03 04:46:02;;;;;;;17.20;3.28;;;15.30;99.90;;;;;;5023254;28;20393;-76
2023/07/03 04:48:29;;;;;;;11.85;3.35;;;15.20;99.90;;;;;;4986774;28;20041;-77
2023/07/03 04:50:54;;;;;;;15.07;3.80;;;15.20;99.90;;;;;;5001705;28;20065;-75
2023/07/03 04:53:20;;;;;;;17.50;3.33;;;15.20;99.90;;;;;;4988256;28;20042;-76
2023/07/03 04:55:47;;;;;;;14.75;3.28;;;15.10;99.90;;;;;;5000844;28;20046;-75
2023/07/03 04:58:14;;;;;;;15.60;3.30;;;15.00;99.90;;;;;;4989274;28;20049;-76
2023/07/03 05:00:40;;;;;;;14.70;3.25;;;14.90;99.90;;;;;;5004465;28;20828;-76
2023/07/03 05:03:07;;;;;;;13.48;2.67;;;14.90;99.90;;;;;;4998475;28;20049;-75
2023/07/03 05:05:34;;;;;;;14.45;3.20;;;14.80;99.90;;;;;;5003262;28;20079;-76
2023/07/03 05:07:59;;;;;;;14.45;2.53;;;14.90;99.90;;;;;;5004722;28;20457;-76
2023/07/03 05:10:25;;;;;;;11.50;2.70;;;15.00;99.90;;;;;;4996789;28;20053;-76
2023/07/03 05:12:51;;;;;;;9.70;2.22;;;15.10;99.90;;;;;;5010241;28;20053;-76
2023/07/03 05:15:18;;;;;;;12.63;2.88;;;15.30;99.90;;;;;;5011505;28;20420;-77
2023/07/03 05:17:49;;;;;;;12.30;2.65;;;15.50;99.90;;;;;;5016214;28;20057;-76
2023/07/03 05:20:15;;;;;;;8.35;2.10;;;15.70;99.90;;;;;;4984440;28;20068;-79
2023/07/03 05:22:42;;;;;;;11.43;2.25;;;15.90;99.90;;;;;;5003576;28;20116;-80
2023/07/03 05:25:10;;;;;;;13.52;2.42;;;16.00;99.90;;;;;;5011683;28;20049;-80
2023/07/03 05:27:36;;;;;;;9.18;2.05;;;16.20;99.90;;;;;;5020920;28;20088;-80
2023/07/03 05:30:03;;;;;;;9.63;1.95;;;16.30;99.90;;;;;;5000124;28;20677;-80
2023/07/03 05:32:29;;;;;;;9.05;2.10;;;16.40;99.90;;;;;;4991044;28;20045;-81
2023/07/03 05:34:55;;;;;;;9.57;1.95;;;16.50;99.90;;;;;;4999769;28;20050;-81
2023/07/03 05:37:21;;;;;;;10.55;2.00;;;16.60;99.90;;;;;;5009390;28;20052;-81
2023/07/03 05:39:49;;;;;;;11.75;2.40;;;16.60;99.90;;;;;;4995680;28;20049;-80
2023/07/03 05:42:19;;;;;;;8.65;2.30;;;16.80;99.90;;;;;;5019019;28;20068;-81
2023/07/03 05:44:45;;;;;;;13.10;2.35;;;17.00;99.90;;;;;;5016957;28;20044;-79
2023/07/03 05:47:12;;;;;;;10.75;2.20;;;17.30;99.90;;;;;;4997272;28;20386;-85
2023/07/03 05:49:38;;;;;;;24.98;4.63;;;17.20;99.90;;;;;;5009572;28;20563;-82
2023/07/03 05:52:05;;;;;;;16.70;2.80;;;17.00;99.90;;;;;;5011398;28;20069;-75
2023/07/03 05:54:31;;;;;;;17.65;3.83;;;16.60;99.90;;;;;;5033362;28;20037;-80
2023/07/03 05:57:05;;;;;;;14.10;3.65;;;16.30;99.90;;;;;;4999679;28;20419;-79
2023/07/03 05:59:32;;;;;;;17.05;4.00;;;16.00;99.90;;;;;;4996726;28;20048;-77
2023/07/03 06:01:57;;;;;;;11.98;2.70;;;15.70;99.90;;;;;;5037346;28;20255;-79
2023/07/03 06:04:24;;;;;;;12.25;2.60;;;15.50;99.90;;;;;;5039203;28;20048;-78
2023/07/03 06:06:51;;;;;;;15.63;3.30;;;15.20;99.90;;;;;;4988542;28;20144;-80
2023/07/03 06:09:17;;;;;;;15.10;3.20;;;15.10;99.90;;;;;;5026438;28;20041;-79
2023/07/03 06:11:43;;;;;;;13.55;3.00;;;15.10;99.90;;;;;;5005139;28;20049;-80
2023/07/03 06:14:15;;;;;;;14.32;2.97;;;15.10;99.90;;;;;;5004394;28;20227;-80
2023/07/03 06:16:42;;;;;;;9.15;3.25;;;15.20;99.90;;;;;;5004459;28;20136;-82
2023/07/03 06:19:09;;;;;;;11.27;3.35;;;15.40;99.90;;;;;;5022085;28;20536;-79
2023/07/03 06:21:35;;;;;;;20.45;3.80;;;15.70;99.90;;;;;;4999541;28;20049;-80
2023/07/03 06:24:00;;;;;;;13.27;2.65;;;15.90;99.90;;;;;;5021122;28;20045;-82
2023/07/03 06:26:29;;;;;;;14.32;3.15;;;16.00;99.90;;;;;;5028921;28;20037;-79
2023/07/03 06:28:55;;;;;;;5.22;1.67;;;16.10;99.90;;;;;;5014854;28;20055;-78
2023/07/03 06:31:24;;;;;;;9.25;2.20;;;16.20;99.90;;;;;;5009657;28;20140;-80
2023/07/03 06:33:49;;;;;;;10.38;2.15;;;16.40;99.90;;;;;;5027260;28;20083;-78
2023/07/03 06:36:20;;;;;;;11.88;2.63;;;16.60;99.90;;;;;;5016689;28;20092;-78
2023/07/03 06:38:51;;;;;;;10.30;2.03;;;16.70;99.90;;;;;;4999247;28;20055;-78
2023/07/03 06:41:16;;;;;;;8.93;2.42;;;16.60;99.90;;;;;;5007736;28;20420;-77
2023/07/03 06:43:42;;;;;;;7.10;1.92;;;16.50;99.90;;;;;;5008005;28;20036;-78
2023/07/03 06:46:10;;;;;;;8.68;1.75;;;16.30;99.90;;;;;;5003618;28;20041;-78
2023/07/03 06:48:37;;;;;;;10.85;2.05;;;16.20;99.90;;;;;;4994102;28;20050;-78
2023/07/03 06:51:07;;;;;;;6.32;1.65;;;16.10;99.90;;;;;;5011012;28;20041;-78
2023/07/03 06:53:33;;;;;;;13.10;2.60;;;16.20;99.90;;;;;;5000374;28;20053;-77
2023/07/03 06:56:00;;;;;;;10.50;2.15;;;16.20;99.90;;;;;;4994321;28;20489;-78
2023/07/03 06:58:28;;;;;;;17.85;2.60;;;16.20;99.90;;;;;;5013218;28;20096;-79
2023/07/03 07:00:54;;;;;;;10.65;2.10;;;16.20;99.90;;;;;;5009901;28;20045;-77
2023/07/03 07:03:20;;;;;;;12.93;2.35;;;16.30;99.90;;;;;;4989486;28;20108;-78
2023/07/03 07:05:46;;;;;;;7.47;2.42;;;16.50;99.90;;;;;;5021136;28;20041;-77
2023/07/03 07:08:18;;;;;;;15.35;3.03;;;16.60;99.90;;;;;;4994704;28;20052;-78
2023/07/03 07:10:44;;;;;;;6.70;1.75;;;16.80;99.90;;;;;;5007154;28;20432;-77
2023/07/03 07:13:11;;;;;;;8.75;1.73;;;16.90;99.90;;;;;;5025359;28;20034;-78
2023/07/03 07:15:38;;;;;;;10.90;2.22;;;17.00;99.90;;;;;;5040258;28;20037;-77
2023/07/03 07:18:05;;;;;;;8.70;1.90;;;17.00;99.90;;;;;;5000023;28;20040;-77
2023/07/03 07:20:41;;;;;;;14.45;2.25;;;17.20;99.90;;;;;;5029255;28;20033;-78
2023/07/03 07:23:07;;;;;;;7.70;1.70;;;17.50;99.90;;;;;;5005287;28;20049;-76
2023/07/03 07:25:34;;;;;;;7.43;2.30;;;17.80;99.90;;;;;;5016393;28;20097;-79
2023/07/03 07:28:03;;;;;;;6.85;1.60;;;18.00;99.90;;;;;;4999578;28;20182;-79
2023/07/03 07:30:29;;;;;;;10.13;2.08;;;18.10;99.90;;;;;;5011823;28;20049;-78
2023/07/03 07:32:54;;;;;;;13.20;2.15;;;18.00;99.90;;;;;;5010727;28;20064;-78
2023/07/03 07:35:20;;;;;;;8.98;2.00;;;17.80;99.90;;;;;;5008210;28;20041;-78
2023/07/03 07:37:47;;;;;;;8.43;1.50;;;17.80;99.90;;;;;;4992855;28;20124;-78
2023/07/03 07:40:13;;;;;;;10.90;2.50;;;17.90;99.90;;;;;;5016576;28;20088;-80
2023/07/03 07:42:38;;;;;;;7.97;1.40;;;18.00;99.90;;;;;;5006733;28;20049;-77
2023/07/03 07:45:06;;;;;;;10.32;2.22;;;18.00;99.90;;;;;;5009764;28;20046;-79
2023/07/03 07:47:31;;;;;;;7.25;1.58;;;18.10;99.90;;;;;;5028580;28;20045;-78
2023/07/03 07:49:58;;;;;;;7.50;1.52;;;18.30;99.90;;;;;;5013650;28;20045;-80
2023/07/03 07:52:24;;;;;;;11.65;1.90;;;18.50;99.90;;;;;;5013253;28;20041;-78
2023/07/03 07:54:55;;;;;;;8.32;1.50;;;18.60;99.90;;;;;;5013381;28;20176;-79
2023/07/03 07:57:20;;;;;;;5.40;1.52;;;18.60;99.90;;;;;;5019872;28;20049;-79
2023/07/03 07:59:46;;;;;;;6.97;1.80;;;18.70;99.90;;;;;;5017246;28;20515;-77
2023/07/03 08:02:12;;;;;;;6.40;1.80;;;18.80;99.90;;;;;;5018865;28;20057;-76
2023/07/03 08:04:37;;;;;;;5.30;1.50;;;18.90;99.90;;;;;;5020684;28;20048;-77
2023/07/03 08:07:03;;;;;;;9.18;1.80;;;19.10;99.90;;;;;;5016053;28;20044;-77
2023/07/03 08:09:29;;;;;;;12.70;2.15;;;19.10;99.90;;;;;;5023202;28;20038;-75
2023/07/03 08:11:55;;;;;;;7.35;2.08;;;19.30;99.90;;;;;;5005734;28;20161;-77
2023/07/03 08:14:20;;;;;;;10.75;2.03;;;19.00;99.90;;;;;;5019180;28;20048;-76
2023/07/03 08:16:46;;;;;;;10.77;2.00;;;18.60;99.90;;;;;;5011833;28;20184;-77
2023/07/03 08:19:12;;;;;;;6.70;1.75;;;18.20;99.90;;;;;;4991937;28;20042;-74
2023/07/03 08:21:37;;;;;;;11.40;1.73;;;17.70;99.90;;;;;;5016063;28;20041;-71
2023/07/03 08:24:03;;;;;;;8.88;2.00;;;17.40;99.90;;;;;;5013037;28;20056;-73
2023/07/03 08:26:31;;;;;;;8.02;1.88;;;17.10;99.90;;;;;;4987608;28;20157;-76
2023/07/03 08:28:57;;;;;;;9.30;2.00;;;17.00;99.90;;;;;;4989716;28;20050;-75
2023/07/03 08:31:22;;;;;;;9.10;2.20;;;16.80;99.90;;;;;;4987193;28;20457;-76
2023/07/03 08:33:48;;;;;;;7.82;1.90;;;16.80;99.90;;;;;;4985347;28;20038;-77
2023/07/03 08:36:14;;;;;;;7.57;1.92;;;16.70;99.90;;;;;;4990001;28;20062;-74
2023/07/03 08:38:40;;;;;;;7.85;1.70;;;16.70;99.90;;;;;;4982845;28;20049;-76
2023/07/03 08:41:09;;;;;;;8.90;1.90;;;16.70;99.90;;;;;;4987246;28;20042;-75
2023/07/03 08:43:41;;;;;;;8.48;1.92;;;16.70;99.90;;;;;;4990980;28;20049;-77
2023/07/03 08:46:10;;;;;;;7.95;1.83;;;16.70;99.90;;;;;;4994417;28;20524;-76
2023/07/03 08:48:37;;;;;;;9.15;2.60;;;17.00;99.90;;;;;;4983840;28;20046;-77
2023/07/03 08:51:06;;;;;;;9.90;1.50;;;17.30;99.90;;;;;;4990305;28;20057;-75
2023/07/03 08:53:40;;;;;;;10.90;2.00;;;17.30;99.90;;;;;;4990334;28;20053;-76
2023/07/03 08:56:15;;;;;;;10.52;2.03;;;17.10;99.90;;;;;;4994138;28;20049;-76
2023/07/03 08:58:41;;;;;;;13.30;2.00;;;17.00;99.90;;;;;;5009714;28;20038;-77
2023/07/03 09:01:28;;;;;;;8.60;1.65;;;17.00;99.90;;;;;;5009594;28;20060;-77
2023/07/03 09:04:12;;;;;;;9.85;1.80;;;17.10;99.90;;;;;;5005854;28;20563;-77
2023/07/03 09:06:58;;;;;;;9.63;1.77;;;17.50;99.90;;;;;;5012351;28;20068;-76
2023/07/03 09:09:31;;;;;;;7.47;1.90;;;17.70;99.90;;;;;;5005109;28;20489;-76
2023/07/03 09:12:24;;;;;;;11.43;2.15;;;17.90;99.90;;;;;;5007565;28;20044;-76
2023/07/03 09:15:23;;;;;;;7.38;1.60;;;18.00;99.90;;;;;;4976323;28;20047;-76
2023/07/03 09:17:52;;;;;;;7.38;2.03;;;18.00;99.90;;;;;;4965304;28;20105;-77
2023/07/03 09:20:18;;;;;;;7.35;1.90;;;17.90;99.90;;;;;;4989087;28;20038;-76
2023/07/03 09:23:20;;;;;;;8.10;1.77;;;18.00;99.90;;;;;;4993030;28;20480;-76
2023/07/03 09:26:01;;;;;;;12.60;2.00;;;17.80;99.90;;;;;;5015400;28;20037;-75
2023/07/03 09:28:28;;;;;;;8.07;1.88;;;17.70;99.90;;;;;;5014394;28;20505;-76
2023/07/03 09:30:54;;;;;;;8.10;2.10;;;17.70;99.90;;;;;;5010773;28;20145;-76
2023/07/03 09:33:20;;;;;;;6.38;1.50;;;17.70;99.90;;;;;;4995787;28;20557;-76
2023/07/03 09:35:47;;;;;;;8.55;1.90;;;17.70;99.90;;;;;;5016672;28;20049;-74
2023/07/03 09:38:24;;;;;;;8.82;1.88;;;17.70;99.90;;;;;;5012885;28;20188;-75
2023/07/03 09:40:54;;;;;;;11.50;2.28;;;17.70;99.90;;;;;;4980356;28;20084;-75
2023/07/03 09:43:24;;;;;;;7.40;1.63;;;17.60;99.90;;;;;;5007891;28;20465;-77
2023/07/03 09:45:51;;;;;;;9.38;2.10;;;17.50;99.90;;;;;;5018401;28;20050;-78
2023/07/03 09:48:26;;;;;;;9.90;1.75;;;17.60;99.90;;;;;;5009486;28;20065;-75
2023/07/03 09:50:54;;;;;;;6.40;1.90;;;17.60;99.90;;;;;;5019162;28;20050;-76
2023/07/03 09:53:22;;;;;;;10.75;2.70;;;17.50;99.90;;;;;;5035116;28;20061;-76
2023/07/03 09:55:54;;;;;;;10.40;2.33;;;17.60;99.90;;;;;;5010327;28;20037;-78
2023/07/03 09:58:22;;;;;;;10.23;2.10;;;17.50;99.90;;;;;;5020004;28;20053;-78
2023/07/03 10:00:50;;;;;;;10.02;2.13;;;17.50;99.90;;;;;;5009486;28;20037;-76
2023/07/03 10:03:30;;;;;;;9.88;1.95;;;17.60;99.90;;;;;;5005618;28;20053;-75
2023/07/03 10:06:17;;;;;;;6.53;1.65;;;17.60;99.90;;;;;;5015688;28;20065;-75
2023/07/03 10:08:51;;;;;;;9.55;1.88;;;17.60;99.90;;;;;;5011744;28;20520;-75
2023/07/03 10:11:45;;;;;;;8.57;1.90;;;17.90;99.90;;;;;;5005560;28;20053;-75
2023/07/03 10:14:17;;;;;;;8.43;2.13;;;18.10;99.90;;;;;;5017808;28;20099;-75
2023/07/03 10:16:44;;;;;;;4.05;1.50;;;18.20;99.90;;;;;;5022503;28;20037;-77
2023/07/03 10:19:10;;;;;;;7.45;1.80;;;18.20;99.90;;;;;;5019579;28;20051;-75
2023/07/03 10:21:38;;;;;;;11.40;1.60;;;18.30;99.90;;;;;;5018050;28;20084;-76
2023/07/03 10:24:05;;;;;;;8.52;2.10;;;18.40;99.90;;;;;;4997763;28;20493;-73
2023/07/03 10:26:42;;;;;;;8.35;1.77;;;18.50;99.90;;;;;;5017241;28;20128;-76
2023/07/03 10:29:22;;;;;;;7.85;1.83;;;18.70;99.90;;;;;;5007023;28;20200;-74
2023/07/03 10:31:50;;;;;;;7.00;2.28;;;18.70;99.90;;;;;;5012589;28;20042;-77
2023/07/03 10:34:27;;;;;;;6.25;1.50;;;18.80;99.90;;;;;;5016799;28;20045;-77
2023/07/03 10:36:59;;;;;;;7.05;1.88;;;18.80;99.90;;;;;;5016935;28;20180;-78
2023/07/03 10:39:57;;;;;;;4.97;1.30;;;18.90;99.90;;;;;;5022930;28;20508;-77
2023/07/03 10:42:32;;;;;;;7.47;1.77;;;19.10;99.90;;;;;;5009431;28;20450;-78
2023/07/03 10:45:06;;;;;;;5.60;1.80;;;19.10;99.90;;;;;;5023249;28;20496;-77
2023/07/03 10:48:05;;;;;;;8.75;1.58;;;19.00;99.90;;;;;;5025560;28;20050;-78
2023/07/03 10:50:57;;;;;;;10.82;2.05;;;18.80;99.90;;;;;;5025801;28;20103;-77
2023/07/03 10:53:33;;;;;;;6.65;1.42;;;18.70;99.90;;;;;;4972506;28;20060;-78
2023/07/03 10:56:17;;;;;;;6.68;2.15;;;18.60;99.90;;;;;;5023439;28;20049;-78
2023/07/03 10:58:49;;;;;;;7.63;1.40;;;18.50;99.90;;;;;;5015096;28;20041;-77
2023/07/03 11:01:42;;;;;;;5.47;1.40;;;18.40;99.90;;;;;;5012166;28;20034;-78
2023/07/03 11:04:14;;;;;;;5.70;1.42;;;18.20;99.90;;;;;;4996026;28;20049;-77
2023/07/03 11:06:42;;;;;;;9.35;1.40;;;18.10;99.90;;;;;;5001309;28;20498;-77
2023/07/03 11:09:26;;;;;;;8.48;3.13;;;18.00;99.90;;;;;;5007293;28;20165;-77
2023/07/03 11:12:03;;;;;;;4.65;1.40;;;18.20;99.90;;;;;;5006295;28;20042;-77
2023/07/03 11:14:54;;;;;;;5.70;1.40;;;18.60;99.90;;;;;;5008379;28;20049;-78
2023/07/03 11:17:57;;;;;;;3.63;1.30;;;19.00;99.90;;;;;;5022265;28;20060;-77
2023/07/03 11:20:35;;;;;;;9.60;2.45;;;19.10;99.90;;;;;;5007663;28;20042;-78
2023/07/03 11:23:27;;;;;;;6.28;1.38;;;19.00;99.90;;;;;;5022049;28;20489;-76
2023/07/03 11:26:20;;;;;;;8.43;1.90;;;19.20;99.90;;;;;;5009216;28;20069;-77
2023/07/03 11:28:51;;;;;;;7.15;1.70;;;19.30;99.90;;;;;;4962443;28;20496;-78
2023/07/03 11:31:18;;;;;;;5.95;2.15;;;19.30;99.90;;;;;;5019611;28;20050;-78
2023/07/03 11:33:44;;;;;;;5.70;1.52;;;19.20;99.90;;;;;;5018645;28;20048;-75
2023/07/03 11:36:37;;;;;;;5.68;1.80;;;19.30;99.90;;;;;;5018585;28;20519;-80
2023/07/03 11:39:11;;;;;;;6.10;1.40;;;19.30;99.90;;;;;;5010906;28;20091;-72
2023/07/03 11:42:01;;;;;;;9.52;2.03;;;19.30;99.90;;;;;;5015454;28;20436;-86
2023/07/03 11:44:37;;;;;;;4.60;1.35;;;19.40;99.90;;;;;;5009344;28;20519;-86
2023/07/03 11:47:12;;;;;;;7.28;2.15;;;19.70;99.90;;;;;;4997317;28;20072;-88
2023/07/03 11:49:51;;;;;;;7.13;1.40;;;19.90;99.90;;;;;;5010709;28;20184;-85
2023/07/03 11:52:32;;;;;;;4.95;1.35;;;19.90;99.90;;;;;;5013585;28;20514;-84
2023/07/03 11:55:16;;;;;;;5.43;1.08;;;19.90;99.90;;;;;;5015150;28;20038;-86
2023/07/03 11:57:46;;;;;;;7.25;1.70;;;19.80;99.90;;;;;;5027352;28;20524;-76
2023/07/03 12:00:20;;;;;;;4.63;1.85;;;19.40;99.90;;;;;;5014062;28;20562;-78
2023/07/03 12:02:48;;;;;;;6.93;1.58;;;19.30;99.90;;;;;;5011466;28;20508;-80
2023/07/03 12:05:45;;;;;;;10.55;1.85;;;19.10;99.90;;;;;;5014122;28;20077;-80
2023/07/03 12:08:12;;;;;;;10.10;1.98;;;19.00;99.90;;;;;;5015080;28;20278;-80
2023/07/03 12:10:42;;;;;;;9.25;2.03;;;19.00;99.90;;;;;;5007665;28;20444;-81
2023/07/03 12:13:26;;;;;;;8.38;1.60;;;19.10;99.90;;;;;;5023306;28;20041;-79
2023/07/03 12:16:02;;;;;;;4.10;1.15;;;18.90;99.90;;;;;;5017364;28;20046;-79
2023/07/03 12:18:27;;;;;;;7.07;1.75;;;19.10;99.90;;;;;;5020632;28;20041;-79
2023/07/03 12:20:58;;;;;;;5.68;1.70;;;19.00;99.90;;;;;;5022547;28;20428;-79
2023/07/03 12:23:44;;;;;;;7.30;1.85;;;18.90;99.90;;;;;;5028916;28;20075;-79
2023/07/03 12:26:18;;;;;;;7.07;1.40;;;18.90;99.90;;;;;;5026360;28;20563;-80
2023/07/03 12:28:45;;;;;;;5.90;1.35;;;19.30;99.90;;;;;;5021307;28;20060;-79
2023/07/03 12:31:21;;;;;;;9.30;1.70;;;19.60;99.90;;;;;;5037045;28;20041;-79
2023/07/03 12:33:58;;;;;;;9.13;1.63;;;20.00;99.90;;;;;;5023346;28;20036;-79
2023/07/03 12:36:32;;;;;;;6.22;1.23;;;20.20;99.90;;;;;;5000172;28;20048;-78
2023/07/03 12:38:59;;;;;;;5.78;1.70;;;20.50;99.90;;;;;;5038413;28;20502;-79
2023/07/03 12:41:31;;;;;;;4.97;1.30;;;20.60;99.90;;;;;;5010291;28;20477;-80
2023/07/03 12:43:59;;;;;;;5.97;1.40;;;20.80;99.90;;;;;;5018807;28;20107;-78
2023/07/03 12:46:31;;;;;;;8.77;1.52;;;20.90;99.90;;;;;;5000118;28;20710;-78
2023/07/03 12:49:14;;;;;;;7.63;1.60;;;21.00;99.90;;;;;;5046254;28;20033;-80
2023/07/03 12:51:51;;;;;;;4.75;1.35;;;21.00;99.90;;;;;;5016046;28;20076;-78
2023/07/03 12:54:17;;;;;;;6.13;1.40;;;20.80;99.90;;;;;;5026642;28;20071;-80